Tatitlek, Alaska
Current Conditions -  °F | °C
As of 12:36 PM on Friday 31 Oct 2014 (Local Time) from PAVD Reporting Station
Broken Clouds Broken Clouds  
Wind Chill: 30°   Ceiling: 5000
Heat Index: 34°   Visibility: 10mi
Dew Point: 23°   Wind: 5mph
Humidity: 65%   Direction: 120°ESE
Pressure: 29.33"   Gusts: NA
Location:  60.88°N, 146.68°W
Report Text: PAVD 312036Z 12004KT 10SM FEW035 BKN050 BKN100 01/M05 A2933 RMK AO1 1947Z WEA: -SN SNB30 TWR WND 29004KT
Loading
Personal Weather Stations






























Interactive Weather Map
Tropical Storm Tracking
New forecast layout! Learn more

10-Day Weather Forecast

Advertisements
Track Severe Weather on mobile